sensor_id;sensor_type;location;lat;lon;timestamp;P1;durP1;ratioP1;P2;durP2;ratioP2
23668;SDS011;12011;47.422;15.018;2024-01-30T00:02:30;13.07;;;12.89;;
23668;SDS011;12011;47.422;15.018;2024-01-30T00:05:03;12.96;;;12.74;;
23668;SDS011;12011;47.422;15.018;2024-01-30T00:07:34;12.04;;;11.84;;
23668;SDS011;12011;47.422;15.018;2024-01-30T00:10:04;11.35;;;11.16;;
23668;SDS011;12011;47.422;15.018;2024-01-30T00:12:34;11.27;;;11.15;;
23668;SDS011;12011;47.422;15.018;2024-01-30T00:15:04;12.30;;;12.05;;
23668;SDS011;12011;47.422;15.018;2024-01-30T00:17:35;12.63;;;12.38;;
23668;SDS011;12011;47.422;15.018;2024-01-30T00:20:08;12.53;;;12.30;;
23668;SDS011;12011;47.422;15.018;2024-01-30T00:22:39;11.57;;;11.42;;
23668;SDS011;12011;47.422;15.018;2024-01-30T00:25:08;11.98;;;11.83;;
23668;SDS011;12011;47.422;15.018;2024-01-30T00:27:38;11.52;;;11.39;;
23668;SDS011;12011;47.422;15.018;2024-01-30T00:30:08;11.07;;;10.90;;
23668;SDS011;12011;47.422;15.018;2024-01-30T00:32:40;10.98;;;10.90;;
23668;SDS011;12011;47.422;15.018;2024-01-30T00:35:12;11.24;;;11.08;;
23668;SDS011;12011;47.422;15.018;2024-01-30T00:37:42;10.15;;;10.06;;
23668;SDS011;12011;47.422;15.018;2024-01-30T00:40:12;10.90;;;10.72;;
23668;SDS011;12011;47.422;15.018;2024-01-30T00:42:43;11.01;;;10.84;;
23668;SDS011;12011;47.422;15.018;2024-01-30T00:45:13;13.24;;;12.94;;
23668;SDS011;12011;47.422;15.018;2024-01-30T00:47:44;13.21;;;12.95;;
23668;SDS011;12011;47.422;15.018;2024-01-30T00:50:16;13.79;;;13.54;;
23668;SDS011;12011;47.422;15.018;2024-01-30T00:52:47;12.97;;;12.59;;
23668;SDS011;12011;47.422;15.018;2024-01-30T00:55:20;11.95;;;11.65;;
23668;SDS011;12011;47.422;15.018;2024-01-30T00:57:52;11.92;;;11.74;;
23668;SDS011;12011;47.422;15.018;2024-01-30T01:00:22;10.89;;;10.79;;
23668;SDS011;12011;47.422;15.018;2024-01-30T01:02:54;11.38;;;11.12;;
23668;SDS011;12011;47.422;15.018;2024-01-30T01:05:27;10.40;;;10.21;;
23668;SDS011;12011;47.422;15.018;2024-01-30T01:07:56;9.95;;;9.84;;
23668;SDS011;12011;47.422;15.018;2024-01-30T01:10:26;10.04;;;9.90;;
23668;SDS011;12011;47.422;15.018;2024-01-30T01:12:56;9.61;;;9.48;;
23668;SDS011;12011;47.422;15.018;2024-01-30T01:15:26;10.78;;;10.64;;
23668;SDS011;12011;47.422;15.018;2024-01-30T01:17:55;12.19;;;11.98;;
23668;SDS011;12011;47.422;15.018;2024-01-30T01:20:28;11.16;;;10.98;;
23668;SDS011;12011;47.422;15.018;2024-01-30T01:22:57;11.28;;;11.08;;
23668;SDS011;12011;47.422;15.018;2024-01-30T01:25:27;11.67;;;11.55;;
23668;SDS011;12011;47.422;15.018;2024-01-30T01:27:57;10.84;;;10.76;;
23668;SDS011;12011;47.422;15.018;2024-01-30T01:30:27;10.76;;;10.63;;
23668;SDS011;12011;47.422;15.018;2024-01-30T01:32:56;10.51;;;10.36;;
23668;SDS011;12011;47.422;15.018;2024-01-30T01:35:30;10.47;;;10.33;;
23668;SDS011;12011;47.422;15.018;2024-01-30T01:38:00;9.87;;;9.78;;
23668;SDS011;12011;47.422;15.018;2024-01-30T01:40:30;9.45;;;9.37;;
23668;SDS011;12011;47.422;15.018;2024-01-30T01:43:02;10.17;;;10.07;;
23668;SDS011;12011;47.422;15.018;2024-01-30T01:45:33;10.35;;;10.23;;
23668;SDS011;12011;47.422;15.018;2024-01-30T01:48:03;10.22;;;10.09;;
23668;SDS011;12011;47.422;15.018;2024-01-30T01:50:36;10.34;;;10.15;;
23668;SDS011;12011;47.422;15.018;2024-01-30T01:53:07;9.70;;;9.59;;
23668;SDS011;12011;47.422;15.018;2024-01-30T01:55:38;8.83;;;8.74;;
23668;SDS011;12011;47.422;15.018;2024-01-30T01:58:07;8.57;;;8.48;;
23668;SDS011;12011;47.422;15.018;2024-01-30T02:00:38;7.95;;;7.83;;
23668;SDS011;12011;47.422;15.018;2024-01-30T02:03:09;8.07;;;7.94;;
23668;SDS011;12011;47.422;15.018;2024-01-30T02:05:43;8.04;;;7.90;;
23668;SDS011;12011;47.422;15.018;2024-01-30T02:08:12;8.17;;;8.06;;
23668;SDS011;12011;47.422;15.018;2024-01-30T02:10:42;8.23;;;8.13;;
23668;SDS011;12011;47.422;15.018;2024-01-30T02:13:12;9.08;;;8.92;;
23668;SDS011;12011;47.422;15.018;2024-01-30T02:15:41;9.50;;;9.27;;
23668;SDS011;12011;47.422;15.018;2024-01-30T02:18:11;8.88;;;8.73;;
23668;SDS011;12011;47.422;15.018;2024-01-30T02:20:43;7.67;;;7.60;;
23668;SDS011;12011;47.422;15.018;2024-01-30T02:23:16;7.57;;;7.43;;
23668;SDS011;12011;47.422;15.018;2024-01-30T02:25:48;8.53;;;8.38;;
23668;SDS011;12011;47.422;15.018;2024-01-30T02:28:18;8.59;;;8.50;;
23668;SDS011;12011;47.422;15.018;2024-01-30T02:30:48;8.79;;;8.71;;
23668;SDS011;12011;47.422;15.018;2024-01-30T02:33:18;9.42;;;9.28;;
23668;SDS011;12011;47.422;15.018;2024-01-30T02:35:48;9.54;;;9.43;;
23668;SDS011;12011;47.422;15.018;2024-01-30T02:38:20;9.13;;;8.99;;
23668;SDS011;12011;47.422;15.018;2024-01-30T02:40:52;9.20;;;9.09;;
23668;SDS011;12011;47.422;15.018;2024-01-30T02:43:22;9.01;;;8.92;;
23668;SDS011;12011;47.422;15.018;2024-01-30T02:45:52;9.87;;;9.80;;
23668;SDS011;12011;47.422;15.018;2024-01-30T02:48:21;10.47;;;10.30;;
23668;SDS011;12011;47.422;15.018;2024-01-30T02:50:51;10.33;;;10.22;;
23668;SDS011;12011;47.422;15.018;2024-01-30T02:53:23;10.60;;;10.42;;
23668;SDS011;12011;47.422;15.018;2024-01-30T02:55:53;10.02;;;9.87;;
23668;SDS011;12011;47.422;15.018;2024-01-30T02:58:23;9.92;;;9.75;;
23668;SDS011;12011;47.422;15.018;2024-01-30T03:00:52;10.41;;;10.29;;
23668;SDS011;12011;47.422;15.018;2024-01-30T03:03:22;9.57;;;9.50;;
23668;SDS011;12011;47.422;15.018;2024-01-30T03:05:52;7.96;;;7.88;;
23668;SDS011;12011;47.422;15.018;2024-01-30T03:08:24;7.97;;;7.88;;
23668;SDS011;12011;47.422;15.018;2024-01-30T03:10:53;7.89;;;7.81;;
23668;SDS011;12011;47.422;15.018;2024-01-30T03:13:23;9.17;;;9.08;;
23668;SDS011;12011;47.422;15.018;2024-01-30T03:15:53;9.87;;;9.69;;
23668;SDS011;12011;47.422;15.018;2024-01-30T03:18:23;9.78;;;9.58;;
23668;SDS011;12011;47.422;15.018;2024-01-30T03:20:52;10.02;;;9.87;;
23668;SDS011;12011;47.422;15.018;2024-01-30T03:23:25;10.21;;;10.00;;
23668;SDS011;12011;47.422;15.018;2024-01-30T03:25:55;10.04;;;9.84;;
23668;SDS011;12011;47.422;15.018;2024-01-30T03:28:25;10.38;;;10.21;;
23668;SDS011;12011;47.422;15.018;2024-01-30T03:30:54;9.50;;;9.35;;
23668;SDS011;12011;47.422;15.018;2024-01-30T03:33:24;9.67;;;9.53;;
23668;SDS011;12011;47.422;15.018;2024-01-30T03:35:54;9.88;;;9.70;;
23668;SDS011;12011;47.422;15.018;2024-01-30T03:38:26;8.66;;;8.47;;
23668;SDS011;12011;47.422;15.018;2024-01-30T03:40:58;7.78;;;7.66;;
23668;SDS011;12011;47.422;15.018;2024-01-30T03:43:29;8.03;;;7.85;;
23668;SDS011;12011;47.422;15.018;2024-01-30T03:45:59;7.57;;;7.45;;
23668;SDS011;12011;47.422;15.018;2024-01-30T03:48:30;7.06;;;6.98;;
23668;SDS011;12011;47.422;15.018;2024-01-30T03:51:00;7.35;;;7.30;;
23668;SDS011;12011;47.422;15.018;2024-01-30T03:53:32;6.95;;;6.86;;
23668;SDS011;12011;47.422;15.018;2024-01-30T03:56:02;7.31;;;7.21;;
23668;SDS011;12011;47.422;15.018;2024-01-30T03:58:32;6.23;;;6.20;;
23668;SDS011;12011;47.422;15.018;2024-01-30T04:01:05;6.25;;;6.22;;
23668;SDS011;12011;47.422;15.018;2024-01-30T04:03:35;6.68;;;6.64;;
23668;SDS011;12011;47.422;15.018;2024-01-30T04:06:05;6.34;;;6.28;;
23668;SDS011;12011;47.422;15.018;2024-01-30T04:08:37;5.69;;;5.66;;
23668;SDS011;12011;47.422;15.018;2024-01-30T04:11:08;6.14;;;6.09;;
23668;SDS011;12011;47.422;15.018;2024-01-30T04:13:52;5.79;;;5.76;;
23668;SDS011;12011;47.422;15.018;2024-01-30T04:16:22;5.86;;;5.81;;
23668;SDS011;12011;47.422;15.018;2024-01-30T04:18:52;6.22;;;6.18;;
23668;SDS011;12011;47.422;15.018;2024-01-30T04:21:22;6.50;;;6.45;;
23668;SDS011;12011;47.422;15.018;2024-01-30T04:23:54;5.76;;;5.73;;
23668;SDS011;12011;47.422;15.018;2024-01-30T04:26:24;5.61;;;5.56;;
23668;SDS011;12011;47.422;15.018;2024-01-30T04:28:54;5.45;;;5.42;;
23668;SDS011;12011;47.422;15.018;2024-01-30T04:31:23;5.66;;;5.62;;
23668;SDS011;12011;47.422;15.018;2024-01-30T04:33:53;5.67;;;5.64;;
23668;SDS011;12011;47.422;15.018;2024-01-30T04:36:23;6.02;;;5.98;;
23668;SDS011;12011;47.422;15.018;2024-01-30T04:38:55;6.24;;;6.20;;
23668;SDS011;12011;47.422;15.018;2024-01-30T04:41:25;5.91;;;5.86;;
23668;SDS011;12011;47.422;15.018;2024-01-30T04:43:57;5.77;;;5.74;;
23668;SDS011;12011;47.422;15.018;2024-01-30T04:46:26;5.98;;;5.93;;
23668;SDS011;12011;47.422;15.018;2024-01-30T04:48:56;6.14;;;6.07;;
23668;SDS011;12011;47.422;15.018;2024-01-30T04:51:26;6.02;;;5.92;;
23668;SDS011;12011;47.422;15.018;2024-01-30T04:53:58;5.55;;;5.49;;
23668;SDS011;12011;47.422;15.018;2024-01-30T04:56:28;5.41;;;5.40;;
23668;SDS011;12011;47.422;15.018;2024-01-30T04:58:58;5.92;;;5.87;;
23668;SDS011;12011;47.422;15.018;2024-01-30T05:01:28;6.04;;;6.01;;
23668;SDS011;12011;47.422;15.018;2024-01-30T05:03:57;6.05;;;6.01;;
23668;SDS011;12011;47.422;15.018;2024-01-30T05:06:29;5.56;;;5.53;;
23668;SDS011;12011;47.422;15.018;2024-01-30T05:09:01;6.01;;;5.98;;
23668;SDS011;12011;47.422;15.018;2024-01-30T05:11:32;6.50;;;6.45;;
23668;SDS011;12011;47.422;15.018;2024-01-30T05:14:06;6.14;;;6.06;;
23668;SDS011;12011;47.422;15.018;2024-01-30T05:16:37;6.32;;;6.21;;
23668;SDS011;12011;47.422;15.018;2024-01-30T05:19:07;6.31;;;6.20;;
23668;SDS011;12011;47.422;15.018;2024-01-30T05:21:36;9.51;;;9.33;;
23668;SDS011;12011;47.422;15.018;2024-01-30T05:24:09;9.48;;;9.29;;
23668;SDS011;12011;47.422;15.018;2024-01-30T05:26:39;7.34;;;7.21;;
23668;SDS011;12011;47.422;15.018;2024-01-30T05:29:08;6.31;;;6.21;;
23668;SDS011;12011;47.422;15.018;2024-01-30T05:31:38;6.51;;;6.40;;
23668;SDS011;12011;47.422;15.018;2024-01-30T05:34:08;7.36;;;7.25;;
23668;SDS011;12011;47.422;15.018;2024-01-30T05:36:38;8.73;;;8.65;;
23668;SDS011;12011;47.422;15.018;2024-01-30T05:39:10;8.96;;;8.89;;
23668;SDS011;12011;47.422;15.018;2024-01-30T05:41:40;7.74;;;7.67;;
23668;SDS011;12011;47.422;15.018;2024-01-30T05:44:09;5.70;;;5.61;;
23668;SDS011;12011;47.422;15.018;2024-01-30T05:46:39;5.81;;;5.73;;
23668;SDS011;12011;47.422;15.018;2024-01-30T05:49:09;5.42;;;5.30;;
23668;SDS011;12011;47.422;15.018;2024-01-30T05:51:38;5.82;;;5.74;;
23668;SDS011;12011;47.422;15.018;2024-01-30T05:54:11;5.29;;;5.22;;
23668;SDS011;12011;47.422;15.018;2024-01-30T05:56:41;5.84;;;5.78;;
23668;SDS011;12011;47.422;15.018;2024-01-30T05:59:10;5.46;;;5.37;;
23668;SDS011;12011;47.422;15.018;2024-01-30T06:01:45;5.95;;;5.88;;
23668;SDS011;12011;47.422;15.018;2024-01-30T06:04:15;6.71;;;6.66;;
23668;SDS011;12011;47.422;15.018;2024-01-30T06:06:44;7.09;;;7.05;;
23668;SDS011;12011;47.422;15.018;2024-01-30T06:09:17;5.89;;;5.82;;
23668;SDS011;12011;47.422;15.018;2024-01-30T06:11:46;6.22;;;6.10;;
23668;SDS011;12011;47.422;15.018;2024-01-30T06:14:16;6.67;;;6.53;;
23668;SDS011;12011;47.422;15.018;2024-01-30T06:16:46;7.04;;;6.87;;
23668;SDS011;12011;47.422;15.018;2024-01-30T06:19:15;6.80;;;6.66;;
23668;SDS011;12011;47.422;15.018;2024-01-30T06:21:45;6.27;;;6.17;;
23668;SDS011;12011;47.422;15.018;2024-01-30T06:24:17;6.57;;;6.47;;
23668;SDS011;12011;47.422;15.018;2024-01-30T06:26:47;7.39;;;7.28;;
23668;SDS011;12011;47.422;15.018;2024-01-30T06:29:17;7.29;;;7.20;;
23668;SDS011;12011;47.422;15.018;2024-01-30T06:31:47;7.44;;;7.32;;
23668;SDS011;12011;47.422;15.018;2024-01-30T06:34:16;6.82;;;6.73;;
23668;SDS011;12011;47.422;15.018;2024-01-30T06:36:46;7.02;;;6.93;;
23668;SDS011;12011;47.422;15.018;2024-01-30T06:39:18;7.12;;;7.07;;
23668;SDS011;12011;47.422;15.018;2024-01-30T06:41:48;7.17;;;7.14;;
23668;SDS011;12011;47.422;15.018;2024-01-30T06:44:18;7.23;;;7.17;;
23668;SDS011;12011;47.422;15.018;2024-01-30T06:46:48;7.05;;;6.97;;
23668;SDS011;12011;47.422;15.018;2024-01-30T06:49:17;7.35;;;7.27;;
23668;SDS011;12011;47.422;15.018;2024-01-30T06:51:47;6.85;;;6.77;;
23668;SDS011;12011;47.422;15.018;2024-01-30T06:54:20;7.32;;;7.21;;
23668;SDS011;12011;47.422;15.018;2024-01-30T06:56:49;6.54;;;6.47;;
23668;SDS011;12011;47.422;15.018;2024-01-30T06:59:19;7.85;;;7.75;;
23668;SDS011;12011;47.422;15.018;2024-01-30T07:01:49;7.29;;;7.21;;
23668;SDS011;12011;47.422;15.018;2024-01-30T07:04:18;7.40;;;7.36;;
23668;SDS011;12011;47.422;15.018;2024-01-30T07:06:48;8.50;;;8.44;;
23668;SDS011;12011;47.422;15.018;2024-01-30T07:09:21;7.72;;;7.67;;
23668;SDS011;12011;47.422;15.018;2024-01-30T07:11:51;8.41;;;8.33;;
23668;SDS011;12011;47.422;15.018;2024-01-30T07:14:23;8.30;;;8.26;;
23668;SDS011;12011;47.422;15.018;2024-01-30T07:16:53;8.72;;;8.65;;
23668;SDS011;12011;47.422;15.018;2024-01-30T07:19:23;9.23;;;9.06;;
23668;SDS011;12011;47.422;15.018;2024-01-30T07:21:53;8.69;;;8.58;;
23668;SDS011;12011;47.422;15.018;2024-01-30T07:24:26;8.44;;;8.37;;
23668;SDS011;12011;47.422;15.018;2024-01-30T07:26:56;9.82;;;9.71;;
23668;SDS011;12011;47.422;15.018;2024-01-30T07:29:25;10.76;;;10.74;;
23668;SDS011;12011;47.422;15.018;2024-01-30T07:31:55;11.78;;;11.70;;
23668;SDS011;12011;47.422;15.018;2024-01-30T07:34:25;13.53;;;13.46;;
23668;SDS011;12011;47.422;15.018;2024-01-30T07:36:54;13.55;;;13.49;;
23668;SDS011;12011;47.422;15.018;2024-01-30T07:39:27;11.08;;;11.00;;
23668;SDS011;12011;47.422;15.018;2024-01-30T07:41:57;10.08;;;10.00;;
23668;SDS011;12011;47.422;15.018;2024-01-30T07:44:27;8.94;;;8.85;;
23668;SDS011;12011;47.422;15.018;2024-01-30T07:46:56;8.17;;;8.07;;
23668;SDS011;12011;47.422;15.018;2024-01-30T07:49:26;8.07;;;7.97;;
23668;SDS011;12011;47.422;15.018;2024-01-30T07:51:56;13.28;;;13.00;;
23668;SDS011;12011;47.422;15.018;2024-01-30T07:54:30;36.52;;;36.29;;
23668;SDS011;12011;47.422;15.018;2024-01-30T07:57:31;30.43;;;30.29;;
23668;SDS011;12011;47.422;15.018;2024-01-30T08:00:01;14.34;;;14.34;;
23668;SDS011;12011;47.422;15.018;2024-01-30T08:02:32;10.08;;;10.05;;
23668;SDS011;12011;47.422;15.018;2024-01-30T08:05:02;10.50;;;10.48;;
23668;SDS011;12011;47.422;15.018;2024-01-30T08:07:35;11.06;;;11.01;;
23668;SDS011;12011;47.422;15.018;2024-01-30T08:10:08;10.45;;;10.34;;
23668;SDS011;12011;47.422;15.018;2024-01-30T08:12:39;10.72;;;10.69;;
23668;SDS011;12011;47.422;15.018;2024-01-30T08:15:11;11.40;;;11.33;;
23668;SDS011;12011;47.422;15.018;2024-01-30T08:17:41;12.46;;;12.37;;
23668;SDS011;12011;47.422;15.018;2024-01-30T08:20:11;13.32;;;13.28;;
23668;SDS011;12011;47.422;15.018;2024-01-30T08:22:42;14.22;;;14.15;;
23668;SDS011;12011;47.422;15.018;2024-01-30T08:25:14;13.66;;;13.62;;
23668;SDS011;12011;47.422;15.018;2024-01-30T08:27:44;12.77;;;12.72;;
23668;SDS011;12011;47.422;15.018;2024-01-30T08:30:14;12.67;;;12.60;;
23668;SDS011;12011;47.422;15.018;2024-01-30T08:32:44;16.43;;;16.22;;
23668;SDS011;12011;47.422;15.018;2024-01-30T08:35:13;17.92;;;17.80;;
23668;SDS011;12011;47.422;15.018;2024-01-30T08:37:43;17.19;;;17.09;;
23668;SDS011;12011;47.422;15.018;2024-01-30T08:40:16;12.94;;;12.87;;
23668;SDS011;12011;47.422;15.018;2024-01-30T08:42:45;10.61;;;10.54;;
23668;SDS011;12011;47.422;15.018;2024-01-30T08:45:15;10.29;;;10.26;;
23668;SDS011;12011;47.422;15.018;2024-01-30T08:47:45;11.04;;;10.96;;
23668;SDS011;12011;47.422;15.018;2024-01-30T08:50:14;10.30;;;10.27;;
23668;SDS011;12011;47.422;15.018;2024-01-30T08:52:44;8.51;;;8.46;;
23668;SDS011;12011;47.422;15.018;2024-01-30T08:55:17;8.56;;;8.48;;
23668;SDS011;12011;47.422;15.018;2024-01-30T08:57:46;8.18;;;8.09;;
23668;SDS011;12011;47.422;15.018;2024-01-30T09:00:17;7.89;;;7.83;;
23668;SDS011;12011;47.422;15.018;2024-01-30T09:02:48;7.14;;;7.10;;
23668;SDS011;12011;47.422;15.018;2024-01-30T09:05:17;7.15;;;7.08;;
23668;SDS011;12011;47.422;15.018;2024-01-30T09:07:47;6.29;;;6.25;;
23668;SDS011;12011;47.422;15.018;2024-01-30T09:10:19;6.70;;;6.63;;
23668;SDS011;12011;47.422;15.018;2024-01-30T09:12:49;7.08;;;7.05;;
23668;SDS011;12011;47.422;15.018;2024-01-30T09:15:19;6.30;;;6.29;;
23668;SDS011;12011;47.422;15.018;2024-01-30T09:17:48;6.08;;;6.07;;
23668;SDS011;12011;47.422;15.018;2024-01-30T09:20:18;5.47;;;5.47;;
23668;SDS011;12011;47.422;15.018;2024-01-30T09:22:48;5.74;;;5.70;;
23668;SDS011;12011;47.422;15.018;2024-01-30T09:25:20;5.15;;;5.12;;
23668;SDS011;12011;47.422;15.018;2024-01-30T09:27:50;4.82;;;4.81;;
23668;SDS011;12011;47.422;15.018;2024-01-30T09:30:20;4.83;;;4.81;;
23668;SDS011;12011;47.422;15.018;2024-01-30T09:32:49;4.63;;;4.60;;
23668;SDS011;12011;47.422;15.018;2024-01-30T09:35:19;4.85;;;4.83;;
23668;SDS011;12011;47.422;15.018;2024-01-30T09:37:49;4.76;;;4.75;;
23668;SDS011;12011;47.422;15.018;2024-01-30T09:40:21;4.69;;;4.67;;
23668;SDS011;12011;47.422;15.018;2024-01-30T09:42:51;4.76;;;4.73;;
23668;SDS011;12011;47.422;15.018;2024-01-30T09:45:23;4.83;;;4.79;;
23668;SDS011;12011;47.422;15.018;2024-01-30T09:47:54;4.76;;;4.72;;
23668;SDS011;12011;47.422;15.018;2024-01-30T09:50:23;4.71;;;4.69;;
23668;SDS011;12011;47.422;15.018;2024-01-30T09:52:53;4.73;;;4.70;;
23668;SDS011;12011;47.422;15.018;2024-01-30T09:55:28;4.78;;;4.74;;
23668;SDS011;12011;47.422;15.018;2024-01-30T09:57:58;4.66;;;4.63;;
23668;SDS011;12011;47.422;15.018;2024-01-30T10:00:28;4.86;;;4.82;;
23668;SDS011;12011;47.422;15.018;2024-01-30T10:02:57;3.77;;;3.76;;
23668;SDS011;12011;47.422;15.018;2024-01-30T10:05:27;3.77;;;3.76;;
23668;SDS011;12011;47.422;15.018;2024-01-30T10:08:00;3.59;;;3.57;;
23668;SDS011;12011;47.422;15.018;2024-01-30T10:10:32;3.45;;;3.43;;
23668;SDS011;12011;47.422;15.018;2024-01-30T10:13:02;4.12;;;4.09;;
23668;SDS011;12011;47.422;15.018;2024-01-30T10:15:32;4.04;;;4.01;;
23668;SDS011;12011;47.422;15.018;2024-01-30T10:18:02;4.39;;;4.34;;
23668;SDS011;12011;47.422;15.018;2024-01-30T10:20:32;4.56;;;4.50;;
23668;SDS011;12011;47.422;15.018;2024-01-30T10:23:02;5.58;;;5.51;;
23668;SDS011;12011;47.422;15.018;2024-01-30T10:25:36;5.16;;;5.10;;
23668;SDS011;12011;47.422;15.018;2024-01-30T10:28:07;4.85;;;4.79;;
23668;SDS011;12011;47.422;15.018;2024-01-30T10:30:37;5.29;;;5.25;;
23668;SDS011;12011;47.422;15.018;2024-01-30T10:33:06;4.80;;;4.79;;
23668;SDS011;12011;47.422;15.018;2024-01-30T10:35:36;4.91;;;4.89;;
23668;SDS011;12011;47.422;15.018;2024-01-30T10:38:06;5.04;;;5.01;;
23668;SDS011;12011;47.422;15.018;2024-01-30T10:40:44;4.94;;;4.91;;
23668;SDS011;12011;47.422;15.018;2024-01-30T10:43:20;5.09;;;5.04;;
23668;SDS011;12011;47.422;15.018;2024-01-30T10:45:53;4.39;;;4.36;;
23668;SDS011;12011;47.422;15.018;2024-01-30T10:48:26;4.06;;;4.04;;
23668;SDS011;12011;47.422;15.018;2024-01-30T10:51:02;4.22;;;4.22;;
23668;SDS011;12011;47.422;15.018;2024-01-30T10:53:34;4.03;;;4.03;;
23668;SDS011;12011;47.422;15.018;2024-01-30T10:56:07;3.63;;;3.63;;
23668;SDS011;12011;47.422;15.018;2024-01-30T10:58:39;3.81;;;3.81;;
23668;SDS011;12011;47.422;15.018;2024-01-30T11:01:09;3.79;;;3.79;;
23668;SDS011;12011;47.422;15.018;2024-01-30T11:03:41;3.59;;;3.59;;
23668;SDS011;12011;47.422;15.018;2024-01-30T11:06:11;3.33;;;3.33;;
23668;SDS011;12011;47.422;15.018;2024-01-30T11:08:44;3.06;;;3.06;;
23668;SDS011;12011;47.422;15.018;2024-01-30T11:11:16;3.20;;;3.20;;
23668;SDS011;12011;47.422;15.018;2024-01-30T11:13:47;3.13;;;3.13;;
23668;SDS011;12011;47.422;15.018;2024-01-30T11:16:19;3.02;;;3.02;;
23668;SDS011;12011;47.422;15.018;2024-01-30T11:18:50;3.15;;;3.15;;
23668;SDS011;12011;47.422;15.018;2024-01-30T11:21:20;3.03;;;3.03;;
23668;SDS011;12011;47.422;15.018;2024-01-30T11:23:54;3.20;;;3.20;;
23668;SDS011;12011;47.422;15.018;2024-01-30T11:26:30;2.86;;;2.86;;
23668;SDS011;12011;47.422;15.018;2024-01-30T11:29:02;2.71;;;2.71;;
23668;SDS011;12011;47.422;15.018;2024-01-30T11:31:35;3.56;;;3.55;;
23668;SDS011;12011;47.422;15.018;2024-01-30T11:34:05;3.22;;;3.22;;
23668;SDS011;12011;47.422;15.018;2024-01-30T11:36:36;3.06;;;3.05;;
23668;SDS011;12011;47.422;15.018;2024-01-30T11:39:07;3.04;;;3.02;;
23668;SDS011;12011;47.422;15.018;2024-01-30T11:41:40;3.05;;;3.05;;
23668;SDS011;12011;47.422;15.018;2024-01-30T11:44:10;3.01;;;3.01;;
23668;SDS011;12011;47.422;15.018;2024-01-30T11:46:40;2.87;;;2.86;;
23668;SDS011;12011;47.422;15.018;2024-01-30T11:49:10;2.84;;;2.83;;
23668;SDS011;12011;47.422;15.018;2024-01-30T11:51:40;2.73;;;2.72;;
23668;SDS011;12011;47.422;15.018;2024-01-30T11:54:10;2.74;;;2.73;;
23668;SDS011;12011;47.422;15.018;2024-01-30T11:56:42;2.82;;;2.81;;
23668;SDS011;12011;47.422;15.018;2024-01-30T11:59:13;2.92;;;2.92;;
23668;SDS011;12011;47.422;15.018;2024-01-30T12:01:43;2.68;;;2.68;;
23668;SDS011;12011;47.422;15.018;2024-01-30T12:04:13;2.93;;;2.93;;
23668;SDS011;12011;47.422;15.018;2024-01-30T12:06:43;2.52;;;2.52;;
23668;SDS011;12011;47.422;15.018;2024-01-30T12:09:23;2.77;;;2.76;;
23668;SDS011;12011;47.422;15.018;2024-01-30T12:11:56;3.00;;;2.99;;
23668;SDS011;12011;47.422;15.018;2024-01-30T12:14:44;2.78;;;2.78;;
23668;SDS011;12011;47.422;15.018;2024-01-30T12:20:57;2.60;;;2.60;;
23668;SDS011;12011;47.422;15.018;2024-01-30T12:23:42;2.88;;;2.88;;
23668;SDS011;12011;47.422;15.018;2024-01-30T12:26:12;2.93;;;2.92;;
23668;SDS011;12011;47.422;15.018;2024-01-30T12:32:43;2.89;;;2.88;;
23668;SDS011;12011;47.422;15.018;2024-01-30T12:40:53;2.58;;;2.58;;
23668;SDS011;12011;47.422;15.018;2024-01-30T12:43:27;2.60;;;2.60;;
23668;SDS011;12011;47.422;15.018;2024-01-30T12:45:59;2.61;;;2.61;;
23668;SDS011;12011;47.422;15.018;2024-01-30T12:48:29;2.56;;;2.56;;
23668;SDS011;12011;47.422;15.018;2024-01-30T12:50:58;2.36;;;2.35;;
23668;SDS011;12011;47.422;15.018;2024-01-30T12:53:28;2.85;;;2.84;;
23668;SDS011;12011;47.422;15.018;2024-01-30T12:55:58;2.68;;;2.68;;
23668;SDS011;12011;47.422;15.018;2024-01-30T12:58:28;2.58;;;2.57;;
23668;SDS011;12011;47.422;15.018;2024-01-30T13:01:00;2.52;;;2.51;;
23668;SDS011;12011;47.422;15.018;2024-01-30T13:03:30;2.79;;;2.77;;
23668;SDS011;12011;47.422;15.018;2024-01-30T13:06:00;3.06;;;3.05;;
23668;SDS011;12011;47.422;15.018;2024-01-30T13:08:30;2.93;;;2.92;;
23668;SDS011;12011;47.422;15.018;2024-01-30T13:10:59;3.24;;;3.24;;
23668;SDS011;12011;47.422;15.018;2024-01-30T13:13:31;3.31;;;3.31;;
23668;SDS011;12011;47.422;15.018;2024-01-30T13:16:04;3.08;;;3.08;;
23668;SDS011;12011;47.422;15.018;2024-01-30T13:18:34;3.20;;;3.20;;
23668;SDS011;12011;47.422;15.018;2024-01-30T13:21:04;3.03;;;3.03;;
23668;SDS011;12011;47.422;15.018;2024-01-30T13:23:34;3.42;;;3.42;;
23668;SDS011;12011;47.422;15.018;2024-01-30T13:26:08;3.09;;;3.09;;
23668;SDS011;12011;47.422;15.018;2024-01-30T13:28:38;2.99;;;2.99;;
23668;SDS011;12011;47.422;15.018;2024-01-30T13:31:10;3.19;;;3.19;;
23668;SDS011;12011;47.422;15.018;2024-01-30T13:33:40;3.51;;;3.51;;
23668;SDS011;12011;47.422;15.018;2024-01-30T13:38:59;3.43;;;3.40;;
23668;SDS011;12011;47.422;15.018;2024-01-30T13:41:33;3.66;;;3.63;;
23668;SDS011;12011;47.422;15.018;2024-01-30T13:44:03;3.46;;;3.45;;
23668;SDS011;12011;47.422;15.018;2024-01-30T13:46:35;3.25;;;3.24;;
23668;SDS011;12011;47.422;15.018;2024-01-30T13:49:05;3.80;;;3.79;;
23668;SDS011;12011;47.422;15.018;2024-01-30T13:51:35;3.43;;;3.40;;
23668;SDS011;12011;47.422;15.018;2024-01-30T13:54:04;3.48;;;3.46;;
23668;SDS011;12011;47.422;15.018;2024-01-30T13:56:34;3.64;;;3.62;;
23668;SDS011;12011;47.422;15.018;2024-01-30T13:59:04;3.79;;;3.76;;
23668;SDS011;12011;47.422;15.018;2024-01-30T14:01:36;3.67;;;3.66;;
23668;SDS011;12011;47.422;15.018;2024-01-30T14:04:06;3.75;;;3.73;;
23668;SDS011;12011;47.422;15.018;2024-01-30T14:06:36;3.51;;;3.48;;
23668;SDS011;12011;47.422;15.018;2024-01-30T14:09:06;4.04;;;4.02;;
23668;SDS011;12011;47.422;15.018;2024-01-30T14:11:36;3.73;;;3.73;;
23668;SDS011;12011;47.422;15.018;2024-01-30T14:14:06;3.87;;;3.87;;
23668;SDS011;12011;47.422;15.018;2024-01-30T14:16:38;3.88;;;3.87;;
23668;SDS011;12011;47.422;15.018;2024-01-30T14:19:08;3.88;;;3.86;;
23668;SDS011;12011;47.422;15.018;2024-01-30T14:21:38;4.49;;;4.46;;
23668;SDS011;12011;47.422;15.018;2024-01-30T14:24:08;4.49;;;4.46;;
23668;SDS011;12011;47.422;15.018;2024-01-30T14:26:37;4.71;;;4.69;;
23668;SDS011;12011;47.422;15.018;2024-01-30T14:29:07;4.25;;;4.24;;
23668;SDS011;12011;47.422;15.018;2024-01-30T14:31:40;5.31;;;5.31;;
23668;SDS011;12011;47.422;15.018;2024-01-30T14:34:09;4.50;;;4.49;;
23668;SDS011;12011;47.422;15.018;2024-01-30T14:36:39;4.42;;;4.40;;
23668;SDS011;12011;47.422;15.018;2024-01-30T14:39:09;4.08;;;4.05;;
23668;SDS011;12011;47.422;15.018;2024-01-30T14:41:39;4.35;;;4.33;;
23668;SDS011;12011;47.422;15.018;2024-01-30T14:44:08;5.24;;;5.22;;
23668;SDS011;12011;47.422;15.018;2024-01-30T14:46:42;4.77;;;4.76;;
23668;SDS011;12011;47.422;15.018;2024-01-30T14:49:12;4.30;;;4.30;;
23668;SDS011;12011;47.422;15.018;2024-01-30T14:51:41;3.75;;;3.75;;
23668;SDS011;12011;47.422;15.018;2024-01-30T14:54:12;3.75;;;3.72;;
23668;SDS011;12011;47.422;15.018;2024-01-30T14:56:42;5.69;;;5.66;;
23668;SDS011;12011;47.422;15.018;2024-01-30T14:59:12;5.85;;;5.81;;
23668;SDS011;12011;47.422;15.018;2024-01-30T15:01:44;4.43;;;4.40;;
23668;SDS011;12011;47.422;15.018;2024-01-30T15:04:14;4.47;;;4.43;;
23668;SDS011;12011;47.422;15.018;2024-01-30T15:06:43;4.00;;;3.98;;